Time;durP1;ratioP1;P1;durP2;ratioP2;P2;SDS_P1;SDS_P2;PMS_P1;PMS_P2;Temp;Humidity;BMP_temperature;BMP_pressure;BME280_temperature;BME280_humidity;BME280_pressure;Samples;Min_cycle;Max_cycle;Signal;HPM_P1;HPM_P2
2021/04/11 00:01:37;;;;;;;18.00;12.18;;;9.00;48.60;;;;;;5016134;28;20060;-58
2021/04/11 00:04:03;;;;;;;21.00;13.00;;;9.00;48.90;;;;;;5015419;28;20053;-58
2021/04/11 00:06:29;;;;;;;17.08;12.23;;;8.90;48.90;;;;;;5016162;28;20021;-58
2021/04/11 00:08:54;;;;;;;15.82;12.43;;;8.80;49.00;;;;;;5016397;28;20029;-56
2021/04/11 00:11:21;;;;;;;18.35;12.50;;;8.80;49.00;;;;;;5016400;28;20480;-58
2021/04/11 00:13:51;;;;;;;15.68;11.23;;;8.80;49.00;;;;;;5015624;28;20030;-60
2021/04/11 00:16:17;;;;;;;19.80;12.35;;;8.70;49.30;;;;;;5003212;28;20037;-58
2021/04/11 00:18:43;;;;;;;17.50;11.80;;;8.60;49.30;;;;;;5016064;28;20116;-58
2021/04/11 00:21:09;;;;;;;15.65;12.48;;;8.60;49.30;;;;;;5016114;28;20053;-58
2021/04/11 00:23:36;;;;;;;15.43;12.15;;;8.50;49.30;;;;;;5015108;28;20485;-58
2021/04/11 00:26:02;;;;;;;19.75;13.13;;;8.50;49.40;;;;;;5015809;28;20030;-58
2021/04/11 00:28:28;;;;;;;17.48;12.32;;;8.40;49.10;;;;;;5016083;28;20455;-56
2021/04/11 00:30:54;;;;;;;21.50;13.82;;;8.40;49.00;;;;;;5014470;28;20113;-58
2021/04/11 00:33:29;;;;;;;20.13;14.35;;;8.40;48.70;;;;;;5015454;28;20385;-58
2021/04/11 00:35:58;;;;;;;18.98;13.23;;;8.40;48.40;;;;;;5015382;28;20066;-58
2021/04/11 00:38:25;;;;;;;18.98;13.80;;;8.40;48.40;;;;;;5015373;28;20044;-57
2021/04/11 00:40:51;;;;;;;20.67;13.52;;;8.50;48.40;;;;;;5015387;28;20059;-57
2021/04/11 00:43:19;;;;;;;17.30;12.55;;;8.50;48.40;;;;;;5008189;28;20085;-58
2021/04/11 00:45:52;;;;;;;19.92;12.70;;;8.50;48.30;;;;;;5012451;28;20057;-57
2021/04/11 00:48:19;;;;;;;18.25;13.63;;;8.50;48.20;;;;;;5015544;28;20022;-58
2021/04/11 00:51:18;;;;;;;20.17;14.40;;;8.50;48.20;;;;;;5015387;28;20026;-58
2021/04/11 00:53:44;;;;;;;21.67;14.20;;;8.50;48.30;;;;;;5014516;28;20038;-58
2021/04/11 00:56:12;;;;;;;19.85;12.88;;;8.40;48.50;;;;;;5014477;28;20357;-57
2021/04/11 00:58:39;;;;;;;18.27;13.57;;;8.50;48.80;;;;;;5015175;28;20057;-58
2021/04/11 01:01:08;;;;;;;17.08;12.63;;;8.50;48.70;;;;;;5015025;28;20037;-58
2021/04/11 01:03:38;;;;;;;18.35;13.65;;;8.40;48.80;;;;;;5002170;28;20125;-58
2021/04/11 01:06:09;;;;;;;19.23;13.77;;;8.40;48.80;;;;;;5015392;28;20029;-53
2021/04/11 01:08:36;;;;;;;21.00;15.43;;;8.30;48.80;;;;;;5014587;28;20426;-57
2021/04/11 01:11:11;;;;;;;19.30;14.30;;;8.30;49.20;;;;;;5015147;28;20026;-59
2021/04/11 01:13:42;;;;;;;21.08;14.20;;;8.20;49.10;;;;;;5015036;28;20034;-57
2021/04/11 01:16:09;;;;;;;19.60;14.52;;;8.20;49.30;;;;;;5002461;28;20037;-57
2021/04/11 01:18:35;;;;;;;22.65;14.90;;;8.10;49.40;;;;;;5014730;28;20076;-58
2021/04/11 01:21:08;;;;;;;20.08;14.25;;;8.10;49.30;;;;;;5014882;28;20030;-56
2021/04/11 01:23:59;;;;;;;23.27;15.60;;;8.00;49.40;;;;;;5014171;28;20065;-56
2021/04/11 01:26:26;;;;;;;22.70;16.05;;;8.00;50.10;;;;;;5012956;28;20346;-57
2021/04/11 01:28:54;;;;;;;23.00;15.90;;;7.90;50.20;;;;;;5011785;28;20120;-58
2021/04/11 01:31:20;;;;;;;23.67;15.82;;;7.90;50.30;;;;;;5014902;28;20410;-56
2021/04/11 01:33:51;;;;;;;20.20;14.70;;;7.90;50.70;;;;;;5001791;28;20477;-56
2021/04/11 01:36:21;;;;;;;21.77;14.98;;;7.90;51.00;;;;;;5014515;28;20025;-57
2021/04/11 01:38:48;;;;;;;20.80;14.50;;;7.80;51.00;;;;;;5014534;28;20172;-60
2021/04/11 01:41:37;;;;;;;19.90;14.80;;;7.80;51.10;;;;;;5014489;28;20045;-57
2021/04/11 01:44:04;;;;;;;21.95;14.82;;;7.70;51.30;;;;;;5002337;28;20113;-58
2021/04/11 01:46:30;;;;;;;25.42;15.27;;;7.60;51.20;;;;;;5013067;28;20136;-56
2021/04/11 01:48:57;;;;;;;20.20;14.20;;;7.60;51.10;;;;;;5014717;28;20374;-57
2021/04/11 01:51:27;;;;;;;24.27;16.42;;;7.60;51.40;;;;;;5014019;28;20018;-57
2021/04/11 01:53:53;;;;;;;21.40;15.43;;;7.60;51.70;;;;;;5013111;28;20057;-59
2021/04/11 01:56:19;;;;;;;23.65;17.20;;;7.60;51.80;;;;;;5014310;28;20109;-58
2021/04/11 01:58:45;;;;;;;23.30;16.98;;;7.60;52.00;;;;;;5014552;28;20088;-61
2021/04/11 02:01:22;;;;;;;25.13;16.92;;;7.60;52.70;;;;;;5014318;28;20037;-58
2021/04/11 02:04:03;;;;;;;24.38;17.92;;;7.70;52.20;;;;;;5013643;28;20033;-59
2021/04/11 02:06:32;;;;;;;19.97;16.23;;;7.70;52.30;;;;;;5014618;28;20128;-58
2021/04/11 02:09:14;;;;;;;23.42;15.27;;;7.80;52.10;;;;;;5014163;28;20105;-59
2021/04/11 02:11:40;;;;;;;21.83;14.95;;;7.80;52.20;;;;;;5014270;28;20076;-58
2021/04/11 02:14:09;;;;;;;20.00;14.68;;;7.70;52.10;;;;;;5013283;28;20026;-59
2021/04/11 02:16:35;;;;;;;21.80;15.25;;;7.70;52.10;;;;;;5013969;28;20030;-58
2021/04/11 02:19:06;;;;;;;21.67;14.95;;;7.70;52.10;;;;;;5013943;28;20036;-58
2021/04/11 02:21:32;;;;;;;23.05;14.52;;;7.70;52.20;;;;;;5013378;28;20026;-56
2021/04/11 02:23:58;;;;;;;21.10;14.90;;;7.60;52.40;;;;;;5013543;28;20029;-59
2021/04/11 02:26:24;;;;;;;23.05;15.20;;;7.60;52.50;;;;;;5013682;28;20022;-60
2021/04/11 02:28:50;;;;;;;24.23;16.30;;;7.60;52.70;;;;;;5013730;28;20021;-56
2021/04/11 02:31:18;;;;;;;24.65;18.02;;;7.60;53.00;;;;;;5018899;28;20064;-58
2021/04/11 02:34:01;;;;;;;25.20;18.00;;;7.60;53.60;;;;;;5013497;28;20065;-57
2021/04/11 02:36:33;;;;;;;25.77;19.52;;;7.60;54.00;;;;;;5014107;28;20116;-58
2021/04/11 02:38:59;;;;;;;23.88;17.45;;;7.70;54.40;;;;;;5013466;28;20032;-58
2021/04/11 02:41:26;;;;;;;27.48;19.95;;;7.70;54.70;;;;;;5013103;28;20042;-56
2021/04/11 02:43:53;;;;;;;25.75;18.75;;;7.70;55.00;;;;;;5013665;28;20478;-57
2021/04/11 02:46:19;;;;;;;27.00;18.83;;;7.70;55.00;;;;;;5013316;28;20073;-57
2021/04/11 02:48:47;;;;;;;26.25;18.23;;;7.70;54.80;;;;;;5013534;28;20036;-58
2021/04/11 02:51:13;;;;;;;21.83;16.17;;;7.80;54.80;;;;;;5008593;28;20335;-58
2021/04/11 02:53:41;;;;;;;21.50;15.88;;;7.80;54.40;;;;;;5004130;28;20129;-58
2021/04/11 02:56:07;;;;;;;19.73;15.65;;;7.80;54.80;;;;;;5013427;28;20038;-58
2021/04/11 02:58:33;;;;;;;20.73;14.82;;;7.70;54.10;;;;;;5013774;28;20120;-57
2021/04/11 03:01:05;;;;;;;22.55;14.32;;;7.70;53.80;;;;;;5012670;28;20481;-58
2021/04/11 03:03:32;;;;;;;18.90;14.50;;;7.70;53.90;;;;;;5017690;28;20533;-58
2021/04/11 03:06:01;;;;;;;18.38;13.68;;;7.70;53.60;;;;;;5017661;28;20373;-59
2021/04/11 03:08:32;;;;;;;20.80;14.57;;;7.70;53.60;;;;;;5017275;28;20057;-57
2021/04/11 03:11:10;;;;;;;19.17;13.90;;;7.70;53.60;;;;;;5016865;28;20057;-58
2021/04/11 03:13:36;;;;;;;21.30;13.38;;;7.60;53.90;;;;;;5017324;28;20366;-58
2021/04/11 03:16:02;;;;;;;19.20;13.38;;;7.60;52.90;;;;;;5017126;28;20029;-58
2021/04/11 03:18:29;;;;;;;20.65;13.63;;;7.70;52.80;;;;;;5017119;28;20056;-58
2021/04/11 03:20:57;;;;;;;20.38;14.25;;;7.70;52.50;;;;;;5019252;28;20065;-56
2021/04/11 03:23:23;;;;;;;18.08;13.30;;;7.70;52.50;;;;;;5015768;28;20057;-60
2021/04/11 03:25:56;;;;;;;19.23;14.07;;;7.70;52.70;;;;;;5017035;28;20037;-57
2021/04/11 03:28:30;;;;;;;21.02;14.05;;;7.70;52.90;;;;;;5014533;28;20034;-59
2021/04/11 03:31:04;;;;;;;20.58;14.20;;;7.70;53.10;;;;;;5016655;28;20029;-57
2021/04/11 03:33:35;;;;;;;18.40;13.68;;;7.60;53.10;;;;;;5003683;28;20101;-56
2021/04/11 03:36:02;;;;;;;18.25;13.18;;;7.60;53.10;;;;;;5016928;28;20366;-57
2021/04/11 03:38:30;;;;;;;18.08;14.02;;;7.60;52.80;;;;;;5017000;28;20034;-59
2021/04/11 03:40:58;;;;;;;20.50;13.95;;;7.60;52.80;;;;;;5016371;28;20053;-58
2021/04/11 03:43:41;;;;;;;17.80;13.27;;;7.70;52.90;;;;;;5016775;28;20037;-58
2021/04/11 03:46:51;;;;;;;20.27;13.68;;;7.70;52.50;;;;;;5016796;28;20014;-59
2021/04/11 03:49:45;;;;;;;19.83;13.23;;;7.90;52.80;;;;;;4936944;29;20837;-58
2021/04/11 03:52:24;;;;;;;17.52;12.95;;;8.00;52.80;;;;;;4937761;29;20031;-58
2021/04/11 03:54:50;;;;;;;19.60;13.25;;;8.10;52.60;;;;;;4999957;28;20034;-57
2021/04/11 03:57:32;;;;;;;17.75;13.60;;;8.20;52.40;;;;;;5016648;28;20018;-59
2021/04/11 04:00:08;;;;;;;18.63;13.45;;;8.30;52.00;;;;;;5015979;28;20484;-59
2021/04/11 04:02:39;;;;;;;18.58;13.27;;;8.40;51.60;;;;;;5014341;28;20065;-59
2021/04/11 04:05:13;;;;;;;19.35;12.93;;;8.60;51.30;;;;;;5012067;28;20121;-58
2021/04/11 04:07:55;;;;;;;19.58;13.43;;;8.70;51.30;;;;;;5016290;28;20133;-58
2021/04/11 04:10:24;;;;;;;18.73;13.60;;;8.80;51.80;;;;;;5015371;28;20062;-58
2021/04/11 04:13:13;;;;;;;18.10;13.20;;;8.90;51.30;;;;;;5016465;28;20030;-57
2021/04/11 04:16:03;;;;;;;21.58;14.23;;;9.10;52.00;;;;;;5015955;28;20156;-56
2021/04/11 04:18:40;;;;;;;20.17;12.23;;;9.30;51.50;;;;;;5016150;28;20026;-56
2021/04/11 04:21:18;;;;;;;15.63;11.95;;;9.50;50.90;;;;;;5015605;28;20105;-57
2021/04/11 04:23:53;;;;;;;18.73;12.65;;;9.60;50.80;;;;;;5016166;28;20461;-56
2021/04/11 04:26:50;;;;;;;18.70;12.70;;;9.80;50.50;;;;;;5016097;28;20482;-57
2021/04/11 04:29:30;;;;;;;19.52;12.15;;;10.00;49.90;;;;;;5015873;28;20519;-57
2021/04/11 04:32:30;;;;;;;17.48;12.55;;;10.30;49.90;;;;;;5015496;28;20125;-58
2021/04/11 04:35:46;;;;;;;17.70;13.25;;;10.60;49.30;;;;;;5016049;28;20428;-58
2021/04/11 04:38:22;;;;;;;19.77;13.00;;;10.90;49.00;;;;;;4963376;28;20117;-57
2021/04/11 04:41:16;;;;;;;16.70;12.45;;;11.10;48.20;;;;;;5002461;28;20030;-59
2021/04/11 04:43:54;;;;;;;22.75;14.85;;;11.30;47.80;;;;;;5015551;28;20022;-59
2021/04/11 04:46:41;;;;;;;21.08;13.90;;;11.40;47.60;;;;;;5015775;28;20474;-59
2021/04/11 04:49:44;;;;;;;18.88;13.25;;;11.60;47.60;;;;;;5015566;28;20018;-56
2021/04/11 04:52:18;;;;;;;16.63;12.90;;;12.00;47.40;;;;;;5012629;28;20053;-58
2021/04/11 04:54:50;;;;;;;21.40;15.90;;;12.60;47.10;;;;;;5006995;28;20029;-58
2021/04/11 04:57:34;;;;;;;27.50;17.75;;;13.50;46.80;;;;;;5001776;28;20041;-58
2021/04/11 05:00:18;;;;;;;25.17;17.95;;;14.20;46.10;;;;;;5015483;28;20026;-57
2021/04/11 05:03:06;;;;;;;26.42;19.02;;;15.10;45.30;;;;;;5005617;28;20029;-59
2021/04/11 05:05:39;;;;;;;25.25;18.17;;;15.80;44.60;;;;;;5013514;28;20028;-60
2021/04/11 05:08:16;;;;;;;23.17;17.48;;;16.20;43.60;;;;;;5014973;28;20088;-58
2021/04/11 05:11:07;;;;;;;21.38;16.77;;;16.60;43.20;;;;;;5010130;28;20575;-57
2021/04/11 05:13:41;;;;;;;20.77;16.45;;;17.00;42.60;;;;;;5010281;28;20048;-55
2021/04/11 05:16:23;;;;;;;24.48;18.20;;;17.40;42.30;;;;;;5014587;28;20022;-59
2021/04/11 05:19:02;;;;;;;18.40;15.02;;;18.00;41.50;;;;;;5014534;28;20022;-58
2021/04/11 05:21:38;;;;;;;19.05;15.18;;;18.60;40.60;;;;;;5014402;28;20500;-57
2021/04/11 05:24:24;;;;;;;18.13;15.10;;;19.10;39.90;;;;;;5001199;28;20022;-60
2021/04/11 05:27:03;;;;;;;18.48;14.85;;;19.50;39.00;;;;;;5013811;28;20018;-60
2021/04/11 05:29:41;;;;;;;18.23;13.63;;;19.80;38.20;;;;;;5011168;28;20049;-57
2021/04/11 05:32:07;;;;;;;19.23;14.35;;;20.00;37.80;;;;;;5008604;28;20053;-55
2021/04/11 05:34:33;;;;;;;18.77;13.80;;;20.20;37.00;;;;;;5004527;28;20057;-58
2021/04/11 05:37:04;;;;;;;15.27;13.18;;;20.20;36.50;;;;;;5014478;28;20026;-58
2021/04/11 05:39:45;;;;;;;18.77;14.55;;;20.20;36.50;;;;;;5013984;28;20014;-58
2021/04/11 05:42:16;;;;;;;;;;;20.40;36.70;;;;;;5015033;28;20042;-58
2021/04/11 05:44:46;;;;;;;17.15;14.15;;;20.60;37.30;;;;;;5014254;28;19909;-60
2021/04/11 05:47:14;;;;;;;16.17;13.57;;;20.90;36.70;;;;;;5013227;28;20026;-59
2021/04/11 05:49:52;;;;;;;19.52;16.40;;;20.90;36.80;;;;;;5014088;28;20450;-58
2021/04/11 05:52:34;;;;;;;18.23;15.40;;;20.60;37.10;;;;;;5009383;28;20509;-59
2021/04/11 05:55:02;;;;;;;;;;;20.10;37.90;;;;;;5008660;28;20442;-58
2021/04/11 05:57:36;;;;;;;17.67;14.25;;;19.40;38.50;;;;;;5013978;28;19931;-57
2021/04/11 06:00:07;;;;;;;19.25;15.32;;;18.80;38.40;;;;;;5013469;28;20064;-58
2021/04/11 06:02:46;;;;;;;18.55;14.60;;;18.20;38.00;;;;;;5020709;28;20030;-58
2021/04/11 06:05:38;;;;;;;19.52;14.77;;;17.50;37.90;;;;;;5001459;28;20169;-56
2021/04/11 06:08:17;;;;;;;21.08;16.95;;;16.90;38.40;;;;;;5003253;28;20069;-57
2021/04/11 06:11:10;;;;;;;21.10;18.35;;;16.50;39.30;;;;;;5012305;28;20029;-58
2021/04/11 06:14:19;;;;;;;21.17;17.35;;;16.10;39.00;;;;;;5013707;28;20088;-59
2021/04/11 06:16:45;;;;;;;16.48;12.95;;;15.70;39.60;;;;;;4965828;28;20046;-59
2021/04/11 06:19:11;;;;;;;17.85;13.18;;;15.50;39.20;;;;;;5013484;28;20030;-59
2021/04/11 06:21:58;;;;;;;15.43;12.35;;;15.40;39.40;;;;;;5004974;28;20049;-58
2021/04/11 06:24:48;;;;;;;12.35;10.77;;;15.30;39.00;;;;;;5002245;28;20026;-57
2021/04/11 06:27:25;;;;;;;14.88;10.45;;;15.20;38.60;;;;;;5013513;28;20041;-57
2021/04/11 06:30:03;;;;;;;10.35;8.25;;;15.10;38.70;;;;;;5013591;28;20026;-57
2021/04/11 06:32:59;;;;;;;12.38;9.35;;;15.10;38.40;;;;;;5021036;28;20026;-58
2021/04/11 06:35:29;;;;;;;13.07;10.63;;;15.10;38.10;;;;;;4985638;28;20042;-59
2021/04/11 06:37:59;;;;;;;12.50;10.03;;;15.10;39.50;;;;;;5004505;28;20018;-59
2021/04/11 06:40:43;;;;;;;13.82;9.30;;;15.10;39.30;;;;;;5000515;28;20026;-59
2021/04/11 06:43:49;;;;;;;10.77;7.88;;;15.10;39.20;;;;;;5002593;28;20022;-57
2021/04/11 06:46:44;;;;;;;10.00;7.28;;;15.10;38.40;;;;;;4972477;28;20113;-59
2021/04/11 06:49:44;;;;;;;9.55;6.90;;;15.10;38.30;;;;;;4972769;28;20117;-59
2021/04/11 06:52:34;;;;;;;9.35;6.05;;;15.10;38.00;;;;;;5005588;28;20036;-58
2021/04/11 06:55:26;;;;;;;8.77;6.18;;;15.10;37.80;;;;;;5013398;28;20714;-59
2021/04/11 06:58:13;;;;;;;5.82;5.03;;;15.00;37.70;;;;;;4965907;28;20046;-58
2021/04/11 07:00:48;;;;;;;6.18;4.78;;;15.00;37.30;;;;;;5001084;28;20101;-58
2021/04/11 07:03:38;;;;;;;10.40;5.70;;;15.00;36.90;;;;;;5008376;28;20040;-58
2021/04/11 07:06:42;;;;;;;7.37;5.43;;;15.00;36.60;;;;;;5006896;28;20030;-59
2021/04/11 07:09:44;;;;;;;6.25;4.97;;;14.90;36.50;;;;;;4976125;28;20070;-57
2021/04/11 07:12:10;;;;;;;7.88;5.80;;;14.90;36.90;;;;;;5011786;28;20366;-59
2021/04/11 07:14:55;;;;;;;9.95;6.18;;;14.90;37.00;;;;;;5013487;28;20022;-59
2021/04/11 07:17:23;;;;;;;10.32;7.55;;;14.90;37.00;;;;;;5013264;28;20210;-59
2021/04/11 07:19:54;;;;;;;11.20;7.50;;;14.90;37.10;;;;;;5012923;28;20044;-58
2021/04/11 07:22:41;;;;;;;9.40;6.70;;;14.80;37.10;;;;;;5012186;28;20033;-59
2021/04/11 07:25:34;;;;;;;10.48;6.53;;;14.80;37.80;;;;;;5012852;28;20022;-59
2021/04/11 07:28:09;;;;;;;12.35;7.53;;;14.80;37.20;;;;;;5010070;28;20030;-60
2021/04/11 07:30:47;;;;;;;11.48;7.72;;;14.80;37.10;;;;;;4997840;28;20034;-58
2021/04/11 07:33:15;;;;;;;10.35;7.30;;;14.80;37.30;;;;;;4998704;28;20031;-60
2021/04/11 07:36:18;;;;;;;13.57;7.53;;;14.70;37.40;;;;;;4998938;28;20377;-60
2021/04/11 07:38:59;;;;;;;9.90;7.65;;;14.70;37.50;;;;;;5007247;28;20014;-60
2021/04/11 07:41:43;;;;;;;9.93;6.80;;;14.70;37.80;;;;;;5004184;28;20105;-59
2021/04/11 07:44:39;;;;;;;9.30;7.10;;;14.60;37.60;;;;;;5000388;28;20117;-59
2021/04/11 07:47:19;;;;;;;9.98;7.60;;;14.60;37.80;;;;;;5012308;28;20025;-58
2021/04/11 07:50:19;;;;;;;11.77;7.95;;;14.60;38.10;;;;;;5014660;28;20030;-59
2021/04/11 07:53:10;;;;;;;11.98;8.43;;;14.60;37.90;;;;;;5007475;28;20025;-59
2021/04/11 07:55:58;;;;;;;11.25;7.57;;;14.60;37.70;;;;;;5016491;28;20030;-59
2021/04/11 07:58:50;;;;;;;11.77;7.80;;;14.60;37.80;;;;;;5016121;28;20030;-56
2021/04/11 08:01:24;;;;;;;14.48;7.88;;;14.60;37.60;;;;;;5015402;28;20555;-59
2021/04/11 08:04:18;;;;;;;10.57;7.85;;;14.60;37.40;;;;;;5015020;28;20052;-60
2021/04/11 08:07:06;;;;;;;16.10;9.73;;;14.60;37.70;;;;;;5008569;28;20030;-59
2021/04/11 08:10:00;;;;;;;13.60;9.02;;;14.50;37.90;;;;;;5011608;28;20367;-60
2021/04/11 08:12:53;;;;;;;10.25;7.72;;;14.50;37.90;;;;;;5016060;28;20026;-60
2021/04/11 08:15:40;;;;;;;10.65;6.88;;;14.50;37.60;;;;;;5015962;28;20125;-60
2021/04/11 08:18:17;;;;;;;9.32;6.97;;;14.50;37.30;;;;;;5013999;28;20117;-59
2021/04/11 08:21:06;;;;;;;8.18;6.15;;;14.50;37.00;;;;;;5016290;28;20069;-59
2021/04/11 08:23:47;;;;;;;8.57;5.97;;;14.40;36.70;;;;;;5015718;28;20033;-60
2021/04/11 08:26:31;;;;;;;7.13;6.20;;;14.50;36.50;;;;;;5015771;28;20018;-58
2021/04/11 08:29:16;;;;;;;6.90;5.82;;;14.50;36.30;;;;;;5015200;28;20034;-58
2021/04/11 08:32:20;;;;;;;7.82;5.60;;;14.50;36.10;;;;;;5012107;28;20033;-58
2021/04/11 08:35:08;;;;;;;8.30;5.97;;;14.50;35.90;;;;;;5011533;28;20113;-58
2021/04/11 08:37:52;;;;;;;7.38;6.13;;;14.50;36.20;;;;;;5015485;28;20033;-60
2021/04/11 08:40:29;;;;;;;7.60;6.05;;;14.50;35.90;;;;;;5002309;28;20038;-58
2021/04/11 08:43:19;;;;;;;7.68;6.38;;;14.50;35.80;;;;;;5015347;28;20095;-59
2021/04/11 08:46:18;;;;;;;8.43;6.88;;;14.60;35.80;;;;;;5015516;28;20034;-60
2021/04/11 08:49:28;;;;;;;9.95;6.18;;;14.60;35.60;;;;;;5014747;28;20022;-59
2021/04/11 08:52:12;;;;;;;8.63;6.20;;;14.60;35.80;;;;;;4968963;28;20085;-60
2021/04/11 08:54:55;;;;;;;7.90;6.18;;;14.60;35.80;;;;;;4997388;28;20126;-59
2021/04/11 08:57:44;;;;;;;7.07;6.10;;;14.50;36.00;;;;;;5015144;28;20025;-58
2021/04/11 09:00:21;;;;;;;8.02;5.80;;;14.60;36.00;;;;;;5001708;28;20469;-60
2021/04/11 09:03:02;;;;;;;8.10;6.60;;;14.60;36.20;;;;;;5013638;28;20088;-60
2021/04/11 09:05:27;;;;;;;8.63;6.18;;;14.60;36.00;;;;;;5012335;28;20035;-59
2021/04/11 09:08:22;;;;;;;10.35;7.05;;;14.50;36.00;;;;;;5008028;28;20021;-59
2021/04/11 09:10:55;;;;;;;8.70;6.90;;;14.60;35.90;;;;;;5013439;28;20038;-58
2021/04/11 09:13:39;;;;;;;8.95;7.43;;;14.60;36.00;;;;;;5022110;28;20040;-59
2021/04/11 09:16:22;;;;;;;9.75;7.15;;;14.60;36.30;;;;;;5014207;28;20056;-59
2021/04/11 09:19:08;;;;;;;11.38;7.40;;;14.60;36.30;;;;;;5011227;28;20457;-57
2021/04/11 09:21:51;;;;;;;8.48;7.00;;;14.60;36.30;;;;;;5008131;28;20029;-57
2021/04/11 09:24:25;;;;;;;10.88;8.07;;;14.60;36.50;;;;;;5013994;28;20021;-58
2021/04/11 09:27:15;;;;;;;12.38;8.07;;;14.60;36.50;;;;;;5013040;28;20026;-59
2021/04/11 09:29:53;;;;;;;10.98;8.10;;;14.60;36.60;;;;;;5014052;28;20039;-56
2021/04/11 09:32:52;;;;;;;11.40;8.00;;;14.60;36.50;;;;;;5011137;28;20018;-58
2021/04/11 09:35:42;;;;;;;9.48;8.07;;;14.60;36.90;;;;;;5012709;28;20022;-58
2021/04/11 09:38:23;;;;;;;8.80;7.90;;;14.50;36.80;;;;;;5008454;28;20076;-57
2021/04/11 09:41:30;;;;;;;11.15;8.60;;;14.50;36.70;;;;;;5009128;28;20030;-59
2021/04/11 09:44:09;;;;;;;14.07;7.88;;;14.50;37.30;;;;;;4932325;29;20043;-60
2021/04/11 09:47:18;;;;;;;11.73;8.50;;;14.50;37.00;;;;;;4946955;29;20050;-57
2021/04/11 09:50:12;;;;;;;11.23;7.80;;;14.50;37.10;;;;;;4994835;28;20120;-57
2021/04/11 09:53:14;;;;;;;10.48;8.07;;;14.50;36.70;;;;;;5011636;28;20471;-58
2021/04/11 09:55:44;;;;;;;8.70;7.35;;;14.50;36.70;;;;;;4978955;28;20037;-58
2021/04/11 09:58:38;;;;;;;11.68;8.40;;;14.50;36.70;;;;;;5012381;28;20022;-59
2021/04/11 10:01:14;;;;;;;10.55;8.30;;;14.50;36.60;;;;;;5008372;28;20494;-58
2021/04/11 10:04:17;;;;;;;10.95;8.30;;;14.50;36.70;;;;;;5007898;28;20158;-58
2021/04/11 10:07:07;;;;;;;9.98;7.95;;;14.50;36.40;;;;;;5009496;28;20033;-57
2021/04/11 10:09:54;;;;;;;9.82;7.18;;;14.50;36.50;;;;;;5010197;28;20041;-58
2021/04/11 10:12:58;;;;;;;9.82;6.63;;;14.50;36.50;;;;;;5011612;28;20111;-58
2021/04/11 10:15:34;;;;;;;9.13;6.95;;;14.40;36.50;;;;;;5011966;28;20030;-58
2021/04/11 10:18:30;;;;;;;8.85;6.18;;;14.40;36.50;;;;;;5009724;28;20030;-59
2021/04/11 10:21:05;;;;;;;9.48;6.70;;;14.40;36.40;;;;;;5004000;28;20485;-57
2021/04/11 10:23:55;;;;;;;8.13;6.72;;;14.40;36.40;;;;;;5008343;28;20048;-59
2021/04/11 10:26:41;;;;;;;8.23;6.63;;;14.40;36.30;;;;;;4999982;28;20033;-59
2021/04/11 10:29:19;;;;;;;10.23;6.90;;;14.40;36.40;;;;;;5006347;28;20038;-57
2021/04/11 10:32:12;;;;;;;10.40;6.97;;;14.40;36.40;;;;;;4997045;28;20535;-59
2021/04/11 10:35:04;;;;;;;9.00;6.57;;;14.40;36.70;;;;;;5004171;28;20049;-59
2021/04/11 10:37:42;;;;;;;9.95;7.30;;;14.30;36.10;;;;;;4995815;28;20180;-59
2021/04/11 10:40:14;;;;;;;8.43;6.30;;;14.20;36.30;;;;;;4992685;28;20030;-58
2021/04/11 10:42:55;;;;;;;8.07;6.50;;;14.20;36.70;;;;;;4992420;28;20062;-59
2021/04/11 10:45:38;;;;;;;7.43;6.50;;;14.20;36.90;;;;;;4997613;28;20056;-59
2021/04/11 10:48:28;;;;;;;11.07;8.23;;;14.10;37.00;;;;;;4993843;28;20077;-59
2021/04/11 10:51:36;;;;;;;8.20;6.28;;;14.10;36.90;;;;;;4992949;28;20077;-58
2021/04/11 10:54:28;;;;;;;8.15;6.57;;;14.20;36.70;;;;;;4993503;28;20564;-60
2021/04/11 10:57:18;;;;;;;11.23;6.68;;;14.20;36.70;;;;;;5003633;28;20485;-60
2021/04/11 10:59:59;;;;;;;7.88;5.88;;;14.20;36.70;;;;;;5000074;28;20100;-58
2021/04/11 11:02:37;;;;;;;8.50;6.00;;;14.20;36.80;;;;;;4994253;28;20128;-59
2021/04/11 11:05:27;;;;;;;7.72;6.22;;;14.20;36.90;;;;;;4995423;28;20034;-59
2021/04/11 11:08:08;;;;;;;8.27;6.82;;;14.20;37.00;;;;;;5004389;28;20488;-58
2021/04/11 11:11:07;;;;;;;12.25;7.05;;;14.20;37.00;;;;;;4999033;28;20038;-59
2021/04/11 11:13:39;;;;;;;8.80;6.43;;;14.30;36.90;;;;;;4992425;28;20033;-59
2021/04/11 11:16:27;;;;;;;8.57;6.95;;;14.30;36.60;;;;;;4996214;28;20064;-59
2021/04/11 11:18:53;;;;;;;9.52;5.97;;;14.30;36.60;;;;;;5003135;28;20049;-59
2021/04/11 11:21:28;;;;;;;10.23;6.82;;;14.30;36.60;;;;;;4999295;28;20730;-59
2021/04/11 11:24:07;;;;;;;7.53;6.28;;;14.30;36.30;;;;;;4993886;28;20489;-59
2021/04/11 11:26:57;;;;;;;10.52;6.43;;;14.30;36.50;;;;;;4996673;28;20101;-60
2021/04/11 11:29:34;;;;;;;8.85;6.50;;;14.40;36.40;;;;;;4998696;28;20021;-59
2021/04/11 11:32:21;;;;;;;9.55;6.80;;;14.40;36.40;;;;;;4998211;28;20421;-60
2021/04/11 11:35:01;;;;;;;8.00;6.40;;;14.40;36.40;;;;;;5006094;28;20033;-58
2021/04/11 11:37:52;;;;;;;9.40;6.63;;;14.40;36.40;;;;;;5007543;28;20029;-59
2021/04/11 11:40:35;;;;;;;9.52;7.72;;;14.40;36.30;;;;;;4998118;28;20335;-60
2021/04/11 11:43:37;;;;;;;8.30;6.32;;;14.40;36.40;;;;;;5007282;28;20108;-59
2021/04/11 11:46:05;;;;;;;;;;;14.40;36.50;;;;;;5005005;28;20038;-59
2021/04/11 11:48:40;;;;;;;9.85;7.00;;;14.30;36.70;;;;;;5010198;28;19933;-57
2021/04/11 11:51:29;;;;;;;8.27;6.75;;;14.30;36.70;;;;;;5006203;28;20065;-58
2021/04/11 11:54:04;;;;;;;9.93;7.03;;;14.40;36.80;;;;;;5009189;28;20034;-59
2021/04/11 11:56:43;;;;;;;7.72;5.78;;;14.30;36.80;;;;;;5011403;28;20642;-60
2021/04/11 11:59:20;;;;;;;9.32;6.53;;;14.40;36.50;;;;;;5004921;28;20022;-59
2021/04/11 12:01:49;;;;;;;8.82;6.65;;;14.40;36.20;;;;;;5014808;28;20381;-60
2021/04/11 12:04:49;;;;;;;8.40;7.00;;;14.40;36.10;;;;;;5012050;28;20048;-59
2021/04/11 12:07:27;;;;;;;10.55;7.05;;;14.40;36.00;;;;;;5004940;28;20101;-60
2021/04/11 12:10:14;;;;;;;9.02;6.72;;;14.40;35.90;;;;;;5004087;28;20026;-59
2021/04/11 12:12:51;;;;;;;8.90;6.75;;;14.40;35.70;;;;;;5008587;28;20105;-60
2021/04/11 12:15:31;;;;;;;9.88;7.38;;;14.40;35.60;;;;;;5006759;28;20031;-60
2021/04/11 12:18:10;;;;;;;9.77;6.93;;;14.40;35.70;;;;;;4999306;28;20389;-59
2021/04/11 12:21:04;;;;;;;8.65;7.38;;;14.40;35.80;;;;;;5001348;28;21336;-60
2021/04/11 12:23:38;;;;;;;11.48;7.70;;;14.40;35.60;;;;;;5003336;28;20478;-59
2021/04/11 12:26:19;;;;;;;8.75;6.68;;;14.40;35.70;;;;;;5003920;28;20022;-60
2021/04/11 12:28:47;;;;;;;7.90;5.90;;;14.40;35.80;;;;;;5002546;28;20031;-59
2021/04/11 12:31:41;;;;;;;8.38;6.55;;;14.40;35.90;;;;;;5001612;28;20481;-59
2021/04/11 12:34:32;;;;;;;10.50;6.65;;;14.30;35.60;;;;;;4992077;28;20062;-59
2021/04/11 12:37:42;;;;;;;7.18;6.30;;;14.30;35.60;;;;;;4998838;28;20034;-59
2021/04/11 12:40:14;;;;;;;9.30;6.82;;;14.30;35.80;;;;;;4998138;28;20104;-59
2021/04/11 12:43:04;;;;;;;8.98;6.70;;;14.30;35.80;;;;;;5002384;28;20034;-58
2021/04/11 12:45:58;;;;;;;8.63;7.00;;;14.30;35.80;;;;;;4998628;28;20030;-59
2021/04/11 12:48:38;;;;;;;8.02;6.28;;;14.30;35.60;;;;;;5003200;28;20033;-59
2021/04/11 12:51:13;;;;;;;9.05;6.50;;;14.30;35.40;;;;;;5008819;28;20030;-58
2021/04/11 12:53:45;;;;;;;9.38;6.72;;;14.40;35.40;;;;;;5003301;28;20045;-58
2021/04/11 12:56:17;;;;;;;8.90;6.82;;;14.40;35.50;;;;;;5002613;28;20032;-58
2021/04/11 12:59:01;;;;;;;8.63;6.30;;;14.40;35.10;;;;;;5003860;28;20340;-59
2021/04/11 13:01:42;;;;;;;7.82;6.18;;;14.40;35.20;;;;;;5005168;28;20038;-59
2021/04/11 13:04:33;;;;;;;8.05;6.15;;;14.40;35.20;;;;;;4998431;28;20034;-60
2021/04/11 13:07:25;;;;;;;9.03;6.30;;;14.40;35.50;;;;;;4997874;28;20057;-59
2021/04/11 13:10:06;;;;;;;8.15;6.47;;;14.40;35.50;;;;;;5004235;28;20025;-59
2021/04/11 13:12:56;;;;;;;8.20;6.20;;;14.40;35.40;;;;;;4998279;28;20042;-59
2021/04/11 13:15:25;;;;;;;9.07;6.68;;;14.40;35.40;;;;;;5004651;28;20120;-60
2021/04/11 13:18:02;;;;;;;8.60;6.35;;;14.40;35.50;;;;;;4999705;28;20030;-59
2021/04/11 13:20:55;;;;;;;8.90;5.97;;;14.40;35.30;;;;;;5003756;28;20021;-59
2021/04/11 13:23:30;;;;;;;9.57;6.10;;;14.40;35.20;;;;;;5006973;28;20030;-58
2021/04/11 13:26:17;;;;;;;10.18;7.25;;;14.40;35.20;;;;;;5003125;28;20052;-59
2021/04/11 13:28:55;;;;;;;8.05;6.53;;;14.40;35.30;;;;;;5003578;28;20459;-59
2021/04/11 13:31:48;;;;;;;11.65;8.13;;;14.40;35.10;;;;;;4999792;28;20034;-59
2021/04/11 13:34:34;;;;;;;9.00;6.65;;;14.40;35.10;;;;;;4994269;28;20029;-58
2021/04/11 13:37:12;;;;;;;9.88;6.95;;;14.40;35.10;;;;;;4994177;28;20482;-59
2021/04/11 13:39:41;;;;;;;9.27;7.30;;;14.40;35.10;;;;;;4999058;28;20544;-60
2021/04/11 13:42:25;;;;;;;9.70;7.90;;;14.40;35.20;;;;;;5008243;28;20026;-60
2021/04/11 13:45:20;;;;;;;11.48;8.90;;;14.40;35.00;;;;;;5006676;28;20081;-59